Terminal Aerodrome Forecast
Issued by NWS

Home | Current Version | Previous Version | Graphics & Text | Print | Product List | Glossary On
Versions: 1 2 3 4 5 6 7 8 9 10 11 12 13 14 15 16 17 18 19 20 21 22 23
000
FTUS43 KICT 201745
TAFCNU
TAF
KCNU 201745Z 2018/2118 VRB05KT P6SM VCSH SCT020 BKN040
      TEMPO 2022/2102 -RA OVC020
     FM210300 33005KT P6SM SCT015 BKN035
     FM210700 32005KT 5SM BR OVC008
     FM211500 30005KT P6SM SCT020 BKN050=

USA.gov is the U.S. government's official web portal to all federal, state and local government web resources and services.